Historyczne dane pomiarowe

Dodano dane terminowe – wersja testowa.

Dane z okresu 1951-2019

Wersja bazy: 1.34 [2019-03-16, lista zmian], aktualizacja planowana na 2019-04-15

Dane meteo z obszaru Polski uzyskane na podstawie danych udostępnionych przez Instytut Meteorologii i Gospodarki Wodnej – Państwowy Instytut Badawczy.

 

Wybierz Datę:    

       

TemperaturaWilgotnośćZachmurzenieWiatrCiśnienieWidzialnośćZjawiska
 Data    tng td wb rh cc ccl cl cm ch dir g1 g2 mslp ppp      
1999-06-20 00:00:00 14.1--- 13.4 13.796wxwxwx0wx--1019.5 977.1 0.0---wx
1999-06-20 01:00:00 13.8--- 13.3 13.597wxwxwx0wx--1019.3 976.9----wx
1999-06-20 02:00:00 13.6--- 13.1 13.397wxwxwx0wx--1018.8 976.4----wx
1999-06-20 03:00:00 13.4--- 13.1 13.298wxwxwx0wx--1018.7 976.2----wx
1999-06-20 04:00:00 13.5--- 13.2 13.398wxwxwx0wx--1018.4 976.0----wx
1999-06-20 05:00:00 14.3--- 13.6 13.996wxwxwxwx0wx--1017.8 975.5----wx
1999-06-20 06:00:00 15.1--- 13.8 14.392wxwxwx0wx--1018.0 975.8 0.0---wxw1
1999-06-20 07:00:00 15.7--- 14.2 14.891wxwxwx0wx--1017.9 975.8----wx
1999-06-20 08:00:00 16.7--- 13.7 14.983wxwxwx0wx--1017.5 975.6----wx
1999-06-20 09:00:00 17.1--- 14.5 15.585wxwxwx0wx--1017.3 975.4----wx
1999-06-20 10:00:00 18.3--- 14.1 15.776wxwxwxwx0wx--1016.7 975.0----wx
1999-06-20 11:00:00 18.0--- 13.5 15.375wxwxwxwx0wx--1016.0 974.3----wx
1999-06-20 12:00:00 19.7--- 13.6 16.068wxwxwxwx0wx--1014.8 973.4 0.0---wx
1999-06-20 13:00:00 19.8--- 13.2 15.866wxwxwxwx0wx--1013.9 972.5----wx
1999-06-20 14:00:00 20.8--- 13.3 16.262wxwxwxwx0wx--1013.0 971.8----wx
1999-06-20 15:00:00 20.4--- 13.5 16.265wxwxwxwx4wx--1012.4 971.2----wx
1999-06-20 16:00:00 20.5--- 14.4 16.768wxwxwx2wx--1012.0 970.8----wx
1999-06-20 17:00:00 20.5--- 14.7 16.970wxwxwxwx2wx--1011.4 970.2----wx
1999-06-20 18:00:00 19.7--- 16.1 17.480wxwxwxwx2wx--1011.2 969.9 0.0---wx
1999-06-20 19:00:00 17.2--- 14.3 15.483wxwxwxwx0wx--1011.4 969.8----wx
1999-06-20 20:00:00 16.4--- 14.8 15.490wxwxwx0wx--1011.1 969.4----wx
1999-06-20 21:00:00 13.6--- 12.6 13.094wxwxwx2wx--1011.4 969.3----wx
1999-06-20 22:00:00 12.6--- 11.5 12.093wxwxwx1wx--1011.3 969.0----wx
1999-06-20 23:00:00 13.8--- 12.8 13.294wxwxwx0wx--1010.6 968.5----wx

 

Źródłem pochodzenia danych jest Instytut Meteorologii i Gospodarki Wodnej – Państwowy Instytut Badawczy. Dane Instytutu Meteorologii i Gospodarki Wodnej – Państwowego Instytutu Badawczego zostały przetworzone.

Dane źródłowe można odnaleźć na stronie https://dane.imgw.pl